Time;durP1;ratioP1;P1;durP2;ratioP2;P2;SDS_P1;SDS_P2;PMS_P1;PMS_P2;Temp;Humidity;BMP_temperature;BMP_pressure;BME280_temperature;BME280_humidity;BME280_pressure;Samples;Min_cycle;Max_cycle;Signal;HPM_P1;HPM_P2
2022/03/23 00:01:12;;;;;;;11.90;7.75;;;20.30;30.40;;;;;;5117654;27;20500;-76
2022/03/23 00:03:38;;;;;;;10.07;7.47;;;20.30;30.50;;;;;;5135182;27;20555;-78
2022/03/23 00:06:04;;;;;;;10.82;7.82;;;20.30;30.50;;;;;;5100689;28;20051;-76
2022/03/23 00:08:29;;;;;;;12.75;7.80;;;20.30;30.50;;;;;;5117624;27;20054;-77
2022/03/23 00:10:56;;;;;;;11.68;8.27;;;20.40;30.50;;;;;;5135415;27;20381;-76
2022/03/23 00:13:22;;;;;;;11.73;7.75;;;20.30;30.60;;;;;;5133945;28;20110;-78
2022/03/23 00:15:48;;;;;;;11.13;8.00;;;20.30;30.60;;;;;;5136105;28;20478;-77
2022/03/23 00:18:15;;;;;;;11.80;7.85;;;20.30;30.70;;;;;;5101518;28;20015;-78
2022/03/23 00:20:40;;;;;;;11.30;7.65;;;20.30;30.70;;;;;;5118005;28;20019;-77
2022/03/23 00:23:10;;;;;;;10.52;8.30;;;20.30;30.70;;;;;;5100909;28;20385;-78
2022/03/23 00:25:36;;;;;;;10.75;8.10;;;20.30;30.80;;;;;;5137093;27;20015;-77
2022/03/23 00:28:03;;;;;;;11.25;8.20;;;20.30;30.90;;;;;;5104654;27;20018;-77
2022/03/23 00:30:29;;;;;;;11.55;7.80;;;20.30;30.90;;;;;;5105538;27;20029;-77
2022/03/23 00:32:55;;;;;;;10.10;7.68;;;20.30;31.00;;;;;;5122505;27;20035;-77
2022/03/23 00:35:22;;;;;;;10.20;7.80;;;20.30;31.00;;;;;;5139561;27;20042;-76
2022/03/23 00:37:49;;;;;;;10.35;7.80;;;20.30;31.00;;;;;;5122903;27;20023;-77
2022/03/23 00:40:15;;;;;;;10.30;7.68;;;20.30;31.10;;;;;;5124213;27;20007;-77
2022/03/23 00:42:44;;;;;;;14.30;8.82;;;20.20;31.00;;;;;;5140860;27;20007;-76
2022/03/23 00:45:13;;;;;;;10.27;7.78;;;20.20;31.00;;;;;;5140812;27;20045;-76
2022/03/23 00:47:39;;;;;;;13.57;8.57;;;20.20;31.10;;;;;;5140786;27;20031;-76
2022/03/23 00:50:07;;;;;;;13.73;8.70;;;20.20;31.20;;;;;;5124028;27;20013;-76
2022/03/23 00:52:37;;;;;;;10.82;8.18;;;20.30;31.20;;;;;;5161303;27;20038;-76
2022/03/23 00:55:04;;;;;;;11.55;8.52;;;20.20;31.20;;;;;;5127650;27;20473;-76
2022/03/23 00:57:31;;;;;;;11.55;8.68;;;20.20;31.20;;;;;;5127884;27;20046;-76
2022/03/23 01:00:00;;;;;;;11.88;8.43;;;20.20;31.20;;;;;;5143626;27;20011;-77
2022/03/23 01:02:28;;;;;;;12.10;8.80;;;20.20;31.20;;;;;;5108947;27;20037;-76
2022/03/23 01:04:54;;;;;;;9.93;7.93;;;20.20;31.30;;;;;;5143451;27;20039;-76
2022/03/23 01:07:20;;;;;;;10.48;8.45;;;20.20;31.30;;;;;;5125795;27;20495;-77
2022/03/23 01:09:46;;;;;;;10.88;8.55;;;20.20;31.30;;;;;;5143136;27;20050;-77
2022/03/23 01:12:12;;;;;;;12.52;9.13;;;20.20;31.30;;;;;;5143946;27;20015;-77
2022/03/23 01:14:38;;;;;;;12.23;8.70;;;20.20;31.30;;;;;;5127309;27;20031;-76
2022/03/23 01:17:06;;;;;;;11.23;8.40;;;20.10;31.30;;;;;;5144236;27;20022;-77
2022/03/23 01:19:32;;;;;;;13.88;9.70;;;20.20;31.40;;;;;;5127265;27;20022;-76
2022/03/23 01:21:58;;;;;;;11.70;8.60;;;20.10;31.40;;;;;;5143068;27;20022;-77
2022/03/23 01:24:24;;;;;;;12.02;8.75;;;20.10;31.70;;;;;;5143426;27;20019;-76
2022/03/23 01:26:50;;;;;;;12.85;8.80;;;20.10;31.40;;;;;;5125316;27;20061;-75
2022/03/23 01:29:17;;;;;;;12.35;8.98;;;20.10;31.40;;;;;;5126615;27;20014;-76
2022/03/23 01:31:43;;;;;;;14.20;9.27;;;20.20;31.40;;;;;;5163368;27;20523;-77
2022/03/23 01:34:09;;;;;;;13.18;9.10;;;20.20;31.50;;;;;;5162279;27;20022;-77
2022/03/23 01:36:37;;;;;;;13.88;9.65;;;20.10;31.40;;;;;;5143808;27;20041;-76
2022/03/23 01:39:03;;;;;;;14.07;9.68;;;20.10;31.40;;;;;;5162233;27;20072;-76
2022/03/23 01:41:30;;;;;;;15.88;10.27;;;20.10;31.40;;;;;;5127105;27;20496;-76
2022/03/23 01:43:56;;;;;;;14.05;9.77;;;20.10;31.40;;;;;;5145862;27;20055;-77
2022/03/23 01:46:22;;;;;;;13.60;10.02;;;20.20;31.50;;;;;;5163216;27;20159;-76
2022/03/23 01:48:49;;;;;;;12.48;9.13;;;20.10;31.40;;;;;;5143858;27;20143;-76
2022/03/23 01:51:15;;;;;;;13.63;9.98;;;20.10;31.50;;;;;;5126194;27;20021;-76
2022/03/23 01:53:41;;;;;;;11.65;9.48;;;20.10;31.50;;;;;;5143675;27;20022;-79
2022/03/23 01:56:09;;;;;;;14.60;9.48;;;20.10;31.60;;;;;;5144280;27;20013;-78
2022/03/23 01:58:36;;;;;;;12.15;9.18;;;20.10;31.60;;;;;;5126933;27;20078;-79
2022/03/23 02:01:02;;;;;;;14.13;9.70;;;20.10;31.70;;;;;;5127284;27;20019;-78
2022/03/23 02:03:29;;;;;;;12.55;9.45;;;20.00;31.70;;;;;;5143242;27;20057;-78
2022/03/23 02:05:54;;;;;;;13.68;10.07;;;20.10;31.70;;;;;;5143522;27;20385;-79
2022/03/23 02:08:20;;;;;;;12.13;9.52;;;20.10;31.70;;;;;;5143233;27;20027;-79
2022/03/23 02:10:47;;;;;;;12.15;9.52;;;20.10;31.80;;;;;;5125544;27;20052;-78
2022/03/23 02:13:12;;;;;;;13.27;9.70;;;20.00;31.80;;;;;;5125291;27;20015;-79
2022/03/23 02:15:38;;;;;;;15.23;10.30;;;20.10;31.90;;;;;;5125062;27;20113;-79
2022/03/23 02:18:06;;;;;;;13.82;9.50;;;20.10;31.90;;;;;;5160854;27;20489;-78
2022/03/23 02:20:33;;;;;;;13.75;9.90;;;20.00;31.90;;;;;;5160723;27;20038;-78
2022/03/23 02:22:59;;;;;;;13.63;9.80;;;20.00;31.90;;;;;;5125210;27;20407;-78
2022/03/23 02:25:26;;;;;;;12.20;9.55;;;20.10;32.00;;;;;;5107913;27;20663;-78
2022/03/23 02:27:53;;;;;;;13.80;9.88;;;20.00;32.00;;;;;;5125045;27;20031;-79
2022/03/23 02:30:19;;;;;;;14.07;10.20;;;20.00;32.10;;;;;;5125025;27;20062;-78
2022/03/23 02:32:45;;;;;;;14.98;9.68;;;20.00;32.10;;;;;;5141603;27;20459;-79
2022/03/23 02:35:15;;;;;;;13.18;10.32;;;20.00;32.10;;;;;;5142648;27;20082;-78
2022/03/23 02:37:41;;;;;;;12.93;9.85;;;19.90;32.10;;;;;;5142923;27;20023;-77
2022/03/23 02:40:08;;;;;;;12.43;10.00;;;19.90;32.10;;;;;;5125917;27;20068;-78
2022/03/23 02:42:35;;;;;;;12.95;9.65;;;20.00;32.30;;;;;;5142357;27;20422;-78
2022/03/23 02:45:02;;;;;;;13.43;10.40;;;19.90;32.30;;;;;;5125253;27;20123;-77
2022/03/23 02:47:28;;;;;;;15.45;11.00;;;19.90;32.30;;;;;;5142119;27;20023;-77
2022/03/23 02:49:55;;;;;;;12.30;9.48;;;19.90;32.30;;;;;;5159967;27;20090;-78
2022/03/23 02:52:21;;;;;;;14.27;9.77;;;19.90;32.30;;;;;;5142313;27;20035;-77
2022/03/23 03:03:43;;;;;;;12.60;10.32;;;19.90;32.60;;;;;;5145537;27;20026;-76
2022/03/23 03:06:08;;;;;;;13.43;9.68;;;19.90;32.60;;;;;;5126467;27;20023;-76
2022/03/23 03:08:51;;;;;;;11.95;9.38;;;19.90;32.60;;;;;;5144043;27;20017;-76
2022/03/23 03:11:19;;;;;;;11.70;9.80;;;19.90;32.70;;;;;;5132925;27;20049;-76
2022/03/23 03:13:48;;;;;;;12.68;10.45;;;19.90;32.70;;;;;;5126070;27;20071;-76
2022/03/23 03:16:13;;;;;;;12.88;10.07;;;19.90;32.70;;;;;;5125182;27;20007;-76
2022/03/23 03:18:39;;;;;;;14.73;10.48;;;19.80;32.70;;;;;;5142099;27;20019;-77
2022/03/23 03:21:09;;;;;;;15.35;9.95;;;19.80;32.70;;;;;;5124242;27;20015;-76
2022/03/23 03:23:41;;;;;;;;;;;19.80;32.70;;;;;;5126697;27;20098;-76
2022/03/23 03:26:08;;;;;;;14.40;9.75;;;19.90;32.70;;;;;;5143745;27;19960;-78
2022/03/23 03:28:35;;;;;;;13.00;10.05;;;19.80;32.60;;;;;;5127681;27;20025;-78
2022/03/23 03:31:12;;;;;;;14.27;9.77;;;19.80;32.70;;;;;;5143922;27;20015;-75
2022/03/23 03:33:38;;;;;;;13.25;10.52;;;19.80;32.70;;;;;;5109224;27;20026;-77
2022/03/23 03:36:05;;;;;;;18.17;10.13;;;19.80;32.70;;;;;;5125883;27;20064;-75
2022/03/23 03:38:31;;;;;;;15.00;10.82;;;19.80;32.80;;;;;;5141725;27;20022;-78
2022/03/23 03:41:02;;;;;;;14.60;11.20;;;19.80;32.70;;;;;;5140699;27;20037;-75
2022/03/23 03:43:27;;;;;;;12.75;10.32;;;19.80;32.70;;;;;;5141069;27;20038;-76
2022/03/23 03:45:54;;;;;;;13.02;10.50;;;19.80;32.70;;;;;;5158934;27;20015;-75
2022/03/23 03:48:21;;;;;;;14.10;10.65;;;19.80;32.70;;;;;;5140443;27;20037;-75
2022/03/23 03:50:47;;;;;;;12.38;10.30;;;19.80;32.70;;;;;;5158889;27;20015;-75
2022/03/23 03:53:14;;;;;;;14.07;10.48;;;19.80;32.70;;;;;;5140227;27;20064;-76
2022/03/23 03:55:40;;;;;;;15.48;10.05;;;19.80;32.70;;;;;;5140064;27;20023;-76
2022/03/23 03:58:06;;;;;;;13.77;9.88;;;19.80;32.80;;;;;;5141624;27;20424;-75
2022/03/23 04:00:35;;;;;;;13.30;9.88;;;19.80;32.70;;;;;;5140814;27;20549;-75
2022/03/23 04:03:02;;;;;;;12.20;10.02;;;19.80;32.80;;;;;;5140495;27;20029;-77
2022/03/23 04:05:29;;;;;;;11.43;9.18;;;19.70;32.70;;;;;;5139364;27;20015;-76
2022/03/23 04:07:55;;;;;;;13.68;10.30;;;19.70;32.70;;;;;;5120918;27;20019;-76
2022/03/23 04:10:24;;;;;;;14.68;10.25;;;19.70;32.70;;;;;;5138459;27;20489;-75
2022/03/23 04:12:50;;;;;;;13.32;10.02;;;19.70;32.80;;;;;;5121578;27;20469;-78
2022/03/23 04:15:19;;;;;;;13.20;10.55;;;19.70;32.80;;;;;;5139502;27;20013;-77
2022/03/23 04:17:45;;;;;;;12.77;10.40;;;19.70;32.80;;;;;;5141313;27;20552;-77
2022/03/23 04:20:11;;;;;;;13.63;9.82;;;19.70;32.70;;;;;;5142148;27;20485;-78
2022/03/23 04:22:41;;;;;;;14.85;10.00;;;19.70;32.80;;;;;;5143454;27;20023;-77
2022/03/23 04:25:08;;;;;;;12.93;10.07;;;19.70;32.80;;;;;;5142726;27;20070;-78
2022/03/23 04:27:34;;;;;;;15.32;10.60;;;19.70;32.80;;;;;;5128213;27;20034;-76
2022/03/23 04:30:01;;;;;;;14.40;10.30;;;19.70;32.80;;;;;;5146691;27;20014;-77
2022/03/23 04:32:26;;;;;;;14.38;10.40;;;19.60;32.70;;;;;;5147161;27;20019;-78
2022/03/23 04:34:52;;;;;;;14.18;10.25;;;19.70;32.80;;;;;;5128926;27;20168;-78
2022/03/23 04:37:19;;;;;;;14.63;10.60;;;19.60;32.70;;;;;;5146151;27;20567;-76
2022/03/23 04:39:45;;;;;;;15.20;10.05;;;19.60;32.70;;;;;;5146876;27;20116;-78
2022/03/23 04:42:13;;;;;;;16.38;10.75;;;19.60;32.70;;;;;;5165041;27;20441;-77
2022/03/23 04:44:40;;;;;;;12.48;10.10;;;19.70;32.80;;;;;;5144943;27;20043;-78
2022/03/23 04:47:06;;;;;;;12.85;10.32;;;19.70;32.60;;;;;;5144649;27;20092;-78
2022/03/23 04:49:32;;;;;;;13.05;10.00;;;19.70;32.70;;;;;;5128011;27;20530;-77
2022/03/23 04:51:59;;;;;;;12.45;9.88;;;19.80;32.50;;;;;;5162932;27;20022;-79
2022/03/23 04:54:25;;;;;;;13.32;9.88;;;19.90;32.50;;;;;;5146237;27;20409;-79
2022/03/23 04:56:51;;;;;;;11.32;9.27;;;20.00;32.10;;;;;;5146893;27;20019;-80
2022/03/23 04:59:18;;;;;;;12.20;9.75;;;20.20;31.80;;;;;;5130064;27;20549;-79
2022/03/23 05:01:43;;;;;;;13.73;10.48;;;20.30;31.50;;;;;;5147153;27;20015;-77
2022/03/23 05:04:09;;;;;;;13.15;10.02;;;20.40;31.40;;;;;;5146809;27;20039;-78
2022/03/23 05:06:36;;;;;;;11.90;9.27;;;20.50;31.20;;;;;;5146982;27;20017;-79
2022/03/23 05:09:02;;;;;;;11.80;9.30;;;20.70;31.10;;;;;;5165348;27;20031;-79
2022/03/23 05:11:27;;;;;;;15.63;10.38;;;20.70;30.90;;;;;;5164733;27;20067;-80
2022/03/23 05:13:55;;;;;;;14.80;10.38;;;20.80;30.80;;;;;;5144306;27;20488;-77
2022/03/23 05:16:20;;;;;;;13.15;9.98;;;20.90;30.70;;;;;;5126312;27;20117;-79
2022/03/23 05:18:46;;;;;;;14.52;9.80;;;21.00;30.50;;;;;;5127745;27;20042;-79
2022/03/23 05:21:14;;;;;;;13.50;10.00;;;21.10;30.30;;;;;;5128352;27;20018;-79
2022/03/23 05:23:41;;;;;;;12.38;9.48;;;21.20;30.20;;;;;;5146944;27;20018;-78
2022/03/23 05:26:07;;;;;;;13.85;9.90;;;21.40;30.10;;;;;;5146543;27;20026;-79
2022/03/23 05:28:34;;;;;;;13.43;9.15;;;21.40;30.00;;;;;;5145522;27;20023;-78
2022/03/23 05:31:01;;;;;;;12.65;10.00;;;21.50;29.90;;;;;;5143941;27;20099;-79
2022/03/23 05:33:27;;;;;;;15.45;9.80;;;21.60;29.80;;;;;;5144356;27;20019;-77
2022/03/23 05:35:53;;;;;;;14.25;9.25;;;21.70;29.80;;;;;;5162816;27;20046;-77
2022/03/23 05:38:19;;;;;;;14.73;9.65;;;21.70;29.70;;;;;;5126708;27;20082;-78
2022/03/23 05:40:45;;;;;;;13.95;9.30;;;21.80;29.60;;;;;;5126962;27;20030;-77
2022/03/23 05:43:11;;;;;;;13.88;9.50;;;21.80;29.60;;;;;;5108123;27;20405;-77
2022/03/23 05:45:37;;;;;;;12.50;8.85;;;22.00;29.50;;;;;;5144013;27;20022;-77
2022/03/23 05:48:03;;;;;;;12.35;9.10;;;22.00;29.40;;;;;;5109963;27;20018;-76
2022/03/23 05:50:29;;;;;;;12.05;9.30;;;22.00;29.40;;;;;;5128053;27;20026;-77
2022/03/23 05:52:55;;;;;;;13.15;9.32;;;22.10;29.30;;;;;;5146606;27;20370;-77
2022/03/23 05:55:21;;;;;;;12.30;8.60;;;22.20;29.30;;;;;;5111982;27;20027;-78
2022/03/23 05:57:48;;;;;;;13.70;9.55;;;22.20;29.20;;;;;;5128171;27;20039;-77
2022/03/23 06:00:15;;;;;;;13.35;9.45;;;22.20;29.10;;;;;;5144833;27;20011;-78
2022/03/23 06:02:41;;;;;;;13.65;9.43;;;22.20;29.10;;;;;;5126129;27;20010;-77
2022/03/23 06:05:08;;;;;;;12.98;9.32;;;22.30;29.10;;;;;;5142964;27;20061;-76
2022/03/23 06:07:36;;;;;;;12.23;9.00;;;22.40;29.10;;;;;;5141975;27;20115;-77
2022/03/23 06:10:03;;;;;;;11.68;9.30;;;22.40;29.00;;;;;;5124674;27;20044;-77
2022/03/23 06:12:28;;;;;;;11.38;8.75;;;22.50;28.90;;;;;;5108144;27;20023;-77
2022/03/23 06:14:54;;;;;;;11.73;8.68;;;22.70;28.70;;;;;;5108835;27;20034;-77
2022/03/23 06:17:20;;;;;;;13.15;8.80;;;23.00;28.40;;;;;;5161220;27;20019;-77
2022/03/23 06:19:47;;;;;;;11.00;8.77;;;23.20;28.20;;;;;;5126044;27;20057;-78
2022/03/23 06:22:13;;;;;;;10.85;8.48;;;23.40;28.00;;;;;;5124565;27;20063;-77
2022/03/23 06:24:39;;;;;;;11.40;8.98;;;23.60;27.80;;;;;;5143325;27;20023;-77
2022/03/23 06:27:05;;;;;;;13.88;8.93;;;23.60;27.60;;;;;;5109498;27;20123;-79
2022/03/23 06:29:31;;;;;;;12.80;9.25;;;23.60;27.60;;;;;;5161932;27;20067;-77
2022/03/23 06:31:57;;;;;;;16.90;9.45;;;23.60;27.70;;;;;;5143138;27;20461;-77
2022/03/23 06:34:25;;;;;;;14.30;9.10;;;23.60;27.70;;;;;;5125352;27;20026;-77
2022/03/23 06:36:53;;;;;;;13.87;8.50;;;23.60;27.70;;;;;;5144378;27;20014;-78
2022/03/23 06:39:19;;;;;;;16.05;9.32;;;23.60;27.60;;;;;;5109794;27;20021;-78
2022/03/23 06:41:45;;;;;;;14.88;9.40;;;23.60;27.60;;;;;;5128376;27;20022;-77
2022/03/23 06:44:13;;;;;;;19.65;9.23;;;23.60;27.60;;;;;;5126974;27;20102;-76
2022/03/23 06:46:40;;;;;;;16.25;9.57;;;23.70;27.60;;;;;;5161815;27;20031;-77
2022/03/23 06:49:07;;;;;;;14.45;9.27;;;23.70;27.60;;;;;;5161484;27;20026;-78
2022/03/23 06:51:34;;;;;;;18.70;9.05;;;23.70;27.60;;;;;;5128610;27;20105;-77
2022/03/23 06:54:00;;;;;;;18.75;9.48;;;23.80;27.60;;;;;;5125811;27;20062;-77
2022/03/23 06:56:26;;;;;;;14.80;8.73;;;23.80;27.50;;;;;;5110701;27;20018;-76
2022/03/23 06:58:52;;;;;;;16.48;8.30;;;23.90;27.50;;;;;;5110761;27;20015;-76
2022/03/23 07:01:19;;;;;;;21.95;8.70;;;23.90;27.40;;;;;;5128107;27;20019;-77
2022/03/23 07:03:45;;;;;;;21.20;9.30;;;24.00;27.40;;;;;;5109024;27;20023;-77
2022/03/23 07:06:12;;;;;;;16.13;8.73;;;24.10;27.40;;;;;;5125574;27;20118;-77
2022/03/23 07:11:29;;;;;;;15.93;8.35;;;24.30;27.20;;;;;;5146332;27;20042;-78
2022/03/23 07:13:56;;;;;;;17.90;8.70;;;24.40;27.10;;;;;;5142132;27;20037;-78
2022/03/23 07:16:28;;;;;;;15.75;8.65;;;24.40;27.00;;;;;;5141241;27;20090;-75
2022/03/23 07:18:57;;;;;;;16.80;8.57;;;24.50;27.00;;;;;;5106667;27;20025;-78
2022/03/23 07:21:28;;;;;;;19.48;9.45;;;24.50;26.90;;;;;;5107115;27;20095;-76
2022/03/23 07:23:54;;;;;;;17.77;8.82;;;24.00;27.20;;;;;;5123889;27;20015;-77
2022/03/23 07:26:22;;;;;;;29.13;12.38;;;23.30;28.00;;;;;;5159708;27;20075;-79
2022/03/23 07:28:51;;;;;;;34.50;13.65;;;23.10;28.60;;;;;;5140216;27;20018;-77
2022/03/23 07:31:17;;;;;;;35.50;13.30;;;23.10;29.20;;;;;;5142045;27;20042;-74
2022/03/23 07:33:43;;;;;;;34.47;13.60;;;23.00;28.60;;;;;;5142869;27;20031;-74
2022/03/23 07:36:14;;;;;;;30.20;13.60;;;22.90;29.00;;;;;;5139930;27;20038;-78
2022/03/23 07:38:40;;;;;;;30.05;14.13;;;22.90;28.90;;;;;;5123332;27;20014;-77
2022/03/23 07:41:07;;;;;;;26.45;13.13;;;22.90;28.60;;;;;;5139640;27;20031;-75
2022/03/23 07:43:35;;;;;;;32.10;13.80;;;22.90;28.40;;;;;;5139016;27;20042;-74
2022/03/23 07:46:04;;;;;;;25.73;14.23;;;22.90;28.30;;;;;;5122567;27;20026;-74
2022/03/23 07:48:32;;;;;;;26.48;14.50;;;22.90;28.10;;;;;;5122712;27;20022;-74
2022/03/23 07:51:03;;;;;;;28.92;14.25;;;22.90;28.00;;;;;;5123266;27;20010;-75
2022/03/23 07:53:38;;;;;;;22.77;13.82;;;23.00;28.00;;;;;;5124381;27;20029;-81
2022/03/23 07:56:04;;;;;;;22.65;14.90;;;23.00;28.00;;;;;;5124513;27;20018;-76
2022/03/23 07:58:30;;;;;;;20.25;13.63;;;23.00;27.90;;;;;;5139436;27;20019;-75
2022/03/23 08:00:56;;;;;;;21.63;13.70;;;23.00;27.80;;;;;;5138699;27;20354;-76
2022/03/23 08:03:22;;;;;;;20.17;14.20;;;23.00;27.80;;;;;;5121692;27;20027;-76
2022/03/23 08:05:48;;;;;;;26.67;13.98;;;23.00;27.90;;;;;;5157247;27;20143;-75
2022/03/23 08:08:15;;;;;;;21.48;12.88;;;22.90;28.00;;;;;;5138772;27;20029;-76
2022/03/23 08:10:42;;;;;;;21.95;14.27;;;22.90;27.80;;;;;;5139203;27;20432;-75
2022/03/23 08:13:12;;;;;;;22.63;14.20;;;22.90;27.90;;;;;;5122447;27;20133;-75
2022/03/23 08:15:40;;;;;;;28.67;15.68;;;22.60;28.10;;;;;;5125284;27;20007;-75
2022/03/23 08:18:06;;;;;;;25.55;14.25;;;22.40;28.10;;;;;;5139480;27;20070;-76
2022/03/23 08:20:32;;;;;;;27.77;14.48;;;22.20;28.60;;;;;;5121623;27;20003;-75
2022/03/23 08:23:03;;;;;;;27.52;14.27;;;22.60;28.40;;;;;;5138089;27;20044;-74
2022/03/23 08:25:29;;;;;;;24.38;13.13;;;22.70;28.40;;;;;;5120931;27;20071;-74
2022/03/23 08:27:56;;;;;;;23.45;13.55;;;22.80;28.40;;;;;;5138477;27;20492;-73
2022/03/23 08:30:22;;;;;;;25.85;13.23;;;22.90;28.30;;;;;;5121668;27;20091;-75
2022/03/23 08:32:51;;;;;;;26.10;13.73;;;23.00;28.20;;;;;;5139906;27;20022;-76
2022/03/23 08:35:19;;;;;;;23.63;14.25;;;23.20;28.00;;;;;;5122510;27;20056;-76
2022/03/23 08:37:45;;;;;;;23.70;12.93;;;23.30;27.80;;;;;;5138389;27;20074;-75
2022/03/23 08:40:13;;;;;;;21.98;13.75;;;23.40;27.60;;;;;;5122246;27;20015;-73
2022/03/23 08:42:42;;;;;;;26.58;14.07;;;23.40;27.50;;;;;;5120976;27;20025;-76
2022/03/23 08:45:11;;;;;;;39.83;16.13;;;23.50;27.50;;;;;;5139346;27;20015;-78
2022/03/23 08:47:40;;;;;;;24.20;13.10;;;23.60;27.30;;;;;;5123426;27;20015;-77
2022/03/23 08:50:12;;;;;;;24.70;14.43;;;23.60;27.20;;;;;;5106134;27;20034;-76
2022/03/23 08:52:41;;;;;;;21.63;13.90;;;23.70;27.30;;;;;;5142310;27;20067;-75
2022/03/23 08:55:09;;;;;;;26.63;14.37;;;23.60;27.20;;;;;;5138974;27;20449;-77
2022/03/23 08:57:36;;;;;;;21.02;13.43;;;23.60;27.20;;;;;;5138284;27;20046;-76
2022/03/23 09:00:04;;;;;;;20.75;13.82;;;23.50;27.10;;;;;;5138363;27;20015;-76
2022/03/23 09:02:31;;;;;;;26.45;14.55;;;23.40;27.10;;;;;;5120940;27;20023;-77
2022/03/23 09:05:03;;;;;;;24.05;14.38;;;23.50;26.80;;;;;;5123914;27;20015;-76
2022/03/23 09:07:33;;;;;;;27.60;13.77;;;23.60;26.60;;;;;;5124701;27;20023;-78
2022/03/23 09:10:02;;;;;;;24.02;14.95;;;23.70;26.40;;;;;;5137230;27;20160;-78
2022/03/23 09:12:31;;;;;;;26.35;13.52;;;23.90;26.10;;;;;;5121087;27;20034;-75
2022/03/23 09:14:57;;;;;;;20.67;13.20;;;23.90;25.90;;;;;;5123742;27;20461;-78
2022/03/23 09:17:26;;;;;;;23.88;12.48;;;23.80;26.20;;;;;;5127289;27;20113;-76
2022/03/23 09:19:52;;;;;;;30.30;13.20;;;23.70;26.50;;;;;;5126881;27;20038;-76
2022/03/23 09:22:18;;;;;;;31.05;13.85;;;23.60;26.80;;;;;;5122846;27;20011;-76
2022/03/23 09:24:47;;;;;;;36.55;14.07;;;23.60;27.20;;;;;;5139562;27;20114;-77
2022/03/23 09:27:16;;;;;;;30.52;13.73;;;23.70;27.20;;;;;;5140694;27;20046;-79
2022/03/23 09:29:49;;;;;;;31.10;13.80;;;23.80;27.00;;;;;;5142252;27;20477;-77
2022/03/23 09:32:23;;;;;;;27.83;13.60;;;23.70;27.00;;;;;;5146564;27;20038;-76
2022/03/23 09:34:52;;;;;;;32.75;14.27;;;23.70;26.80;;;;;;5146105;27;20082;-78
2022/03/23 09:40:03;;;;;;;32.05;15.10;;;23.70;26.40;;;;;;5143124;27;20598;-76
2022/03/23 09:42:30;;;;;;;29.75;13.27;;;23.70;26.80;;;;;;5140368;27;20027;-76
2022/03/23 09:44:56;;;;;;;26.05;14.13;;;23.80;26.90;;;;;;5140204;27;20030;-77
2022/03/23 09:47:23;;;;;;;31.58;14.60;;;23.80;26.80;;;;;;5123908;27;20026;-78
2022/03/23 09:49:51;;;;;;;26.85;14.57;;;23.80;26.90;;;;;;5106610;27;20045;-77
2022/03/23 09:52:17;;;;;;;29.27;14.48;;;23.90;27.00;;;;;;5123510;27;20064;-79
2022/03/23 09:54:52;;;;;;;23.35;13.85;;;24.00;27.10;;;;;;5125295;27;20485;-79
2022/03/23 09:57:24;;;;;;;27.02;14.48;;;24.00;27.20;;;;;;5123488;27;20026;-76
2022/03/23 09:59:50;;;;;;;29.42;14.68;;;24.10;27.50;;;;;;5139737;27;20419;-79
2022/03/23 10:02:38;;;;;;;25.95;14.55;;;23.90;27.60;;;;;;5140268;27;20011;-77
2022/03/23 10:05:32;;;;;;;26.13;14.65;;;23.90;27.80;;;;;;5140289;27;20106;-77
2022/03/23 10:08:17;;;;;;;34.00;14.65;;;23.90;28.10;;;;;;5158995;27;20026;-75
2022/03/23 10:11:34;;;;;;;32.90;14.68;;;24.00;28.20;;;;;;5141219;27;20027;-75
2022/03/23 10:14:37;;;;;;;25.13;13.77;;;24.30;27.90;;;;;;5122865;27;20030;-76
2022/03/23 10:17:22;;;;;;;27.92;12.75;;;24.70;27.60;;;;;;5158577;27;20015;-76
2022/03/23 10:19:49;;;;;;;28.33;12.20;;;24.90;27.30;;;;;;5122771;27;20010;-77
2022/03/23 10:22:15;;;;;;;22.02;11.13;;;25.10;27.20;;;;;;5139680;27;20052;-80
2022/03/23 10:24:42;;;;;;;24.25;10.48;;;25.20;27.00;;;;;;5138344;27;20542;-82
2022/03/23 10:27:15;;;;;;;20.52;10.30;;;25.30;26.90;;;;;;5139239;27;20039;-74
2022/03/23 10:29:54;;;;;;;23.08;9.23;;;25.40;26.80;;;;;;5139123;27;20071;-74
2022/03/23 10:32:21;;;;;;;18.83;9.30;;;25.60;26.80;;;;;;5105664;27;20015;-74
2022/03/23 10:34:50;;;;;;;20.10;8.43;;;25.60;26.70;;;;;;5105207;27;20033;-75
2022/03/23 10:37:28;;;;;;;17.77;8.52;;;25.70;26.60;;;;;;5140134;27;20003;-76
2022/03/23 10:39:55;;;;;;;19.88;8.10;;;25.80;26.60;;;;;;5139045;27;20007;-79
2022/03/23 10:42:22;;;;;;;16.27;7.72;;;25.90;26.60;;;;;;5104943;27;20044;-75
2022/03/23 10:44:48;;;;;;;16.08;7.80;;;25.90;26.60;;;;;;5139220;27;20031;-74
2022/03/23 10:47:32;;;;;;;17.38;8.00;;;25.90;26.50;;;;;;5104888;27;20019;-75
2022/03/23 10:50:18;;;;;;;15.85;7.63;;;25.90;26.50;;;;;;5122268;27;20500;-76
2022/03/23 10:52:50;;;;;;;17.38;7.25;;;25.90;26.50;;;;;;5105857;27;20015;-76
2022/03/23 10:55:16;;;;;;;16.70;7.32;;;26.00;26.50;;;;;;5140413;27;20027;-75
2022/03/23 10:57:54;;;;;;;19.48;7.38;;;26.00;26.40;;;;;;5123005;27;20167;-83
2022/03/23 11:00:36;;;;;;;16.52;7.50;;;26.00;26.50;;;;;;5123375;27;20049;-76
2022/03/23 11:03:03;;;;;;;23.60;8.05;;;26.00;26.50;;;;;;5122790;27;20010;-76
2022/03/23 11:05:33;;;;;;;17.48;7.55;;;26.10;26.50;;;;;;5106820;27;20031;-78
2022/03/23 11:08:14;;;;;;;18.88;7.40;;;26.10;26.50;;;;;;5140972;27;20055;-76
2022/03/23 11:16:18;;;;;;;25.88;8.15;;;26.10;26.50;;;;;;5144045;27;20040;-77
2022/03/23 11:18:44;;;;;;;;;;;26.10;26.60;;;;;;5124225;27;20010;-76
2022/03/23 11:21:10;;;;;;;12.20;6.68;;;26.00;26.60;;;;;;5123369;27;19926;-77
2022/03/23 11:23:37;;;;;;;16.92;7.10;;;26.00;26.60;;;;;;5122992;27;20466;-76
2022/03/23 11:26:10;;;;;;;15.30;7.97;;;26.00;26.70;;;;;;5143199;27;20046;-77
2022/03/23 11:28:41;;;;;;;17.30;7.85;;;25.90;26.70;;;;;;5125891;27;20018;-77
2022/03/23 11:31:08;;;;;;;16.42;7.38;;;25.80;26.80;;;;;;5123396;27;20015;-80
2022/03/23 11:33:35;;;;;;;15.40;7.85;;;25.80;26.90;;;;;;5126452;27;20029;-78
2022/03/23 11:36:03;;;;;;;12.40;7.15;;;25.70;26.90;;;;;;5125096;27;20027;-76
2022/03/23 11:38:29;;;;;;;17.08;7.38;;;25.70;26.90;;;;;;5126577;27;20017;-83
2022/03/23 11:40:56;;;;;;;18.38;7.55;;;25.70;27.40;;;;;;5126049;27;20022;-84
2022/03/23 11:43:27;;;;;;;14.93;7.28;;;25.60;27.00;;;;;;5125157;27;20018;-77
2022/03/23 11:45:53;;;;;;;13.45;7.30;;;25.60;27.10;;;;;;5123361;27;20007;-84
2022/03/23 11:48:52;;;;;;;16.05;7.03;;;25.50;27.00;;;;;;5140629;27;20071;-76
2022/03/23 11:51:36;;;;;;;14.80;6.82;;;25.50;27.10;;;;;;5143192;27;20101;-82
2022/03/23 11:54:17;;;;;;;16.45;7.88;;;25.40;27.20;;;;;;5159041;27;20030;-79
2022/03/23 11:56:51;;;;;;;14.93;7.43;;;25.30;27.10;;;;;;5158478;27;20075;-77
2022/03/23 11:59:21;;;;;;;16.60;7.43;;;25.30;27.20;;;;;;5140192;27;20007;-76
2022/03/23 12:01:47;;;;;;;18.35;7.70;;;25.30;27.30;;;;;;5107365;27;20070;-80
2022/03/23 12:04:23;;;;;;;14.98;7.75;;;25.20;27.30;;;;;;5123953;27;20015;-86
2022/03/23 12:07:08;;;;;;;13.77;7.88;;;25.10;27.30;;;;;;5142149;27;20058;-77
2022/03/23 12:09:37;;;;;;;14.68;7.43;;;25.10;27.40;;;;;;5124135;27;20015;-76
2022/03/23 12:12:12;;;;;;;13.77;7.82;;;25.00;27.40;;;;;;5140271;27;20040;-80
2022/03/23 12:14:38;;;;;;;11.88;6.97;;;24.90;27.50;;;;;;5124788;27;20022;-76
2022/03/23 12:17:26;;;;;;;19.15;7.57;;;24.90;27.50;;;;;;5105408;27;20007;-77
2022/03/23 12:19:53;;;;;;;18.60;7.13;;;24.80;27.60;;;;;;5106004;27;20040;-77
2022/03/23 12:22:51;;;;;;;14.27;7.57;;;24.80;27.70;;;;;;5123260;27;20002;-79
2022/03/23 12:25:22;;;;;;;14.23;7.60;;;24.70;27.70;;;;;;5158121;27;20040;-76
2022/03/23 12:28:25;;;;;;;15.95;8.38;;;24.70;27.70;;;;;;5119618;28;20039;-77
2022/03/23 12:30:57;;;;;;;18.77;8.00;;;24.60;27.70;;;;;;5139064;28;20012;-77
2022/03/23 12:33:26;;;;;;;19.50;8.18;;;24.60;27.70;;;;;;5138928;28;20091;-77
2022/03/23 12:35:52;;;;;;;13.52;7.82;;;24.50;27.80;;;;;;5120904;28;20538;-77
2022/03/23 12:38:24;;;;;;;15.93;8.10;;;24.50;27.80;;;;;;5104807;28;20015;-77
2022/03/23 12:40:51;;;;;;;14.35;7.75;;;24.40;27.80;;;;;;5140035;28;20469;-80
2022/03/23 12:43:34;;;;;;;18.42;7.93;;;24.40;27.80;;;;;;5106602;28;20012;-78
2022/03/23 12:46:01;;;;;;;14.27;7.80;;;24.40;27.90;;;;;;5107020;27;20011;-76
2022/03/23 12:59:41;;;;;;;19.02;7.93;;;24.20;28.00;;;;;;5143787;27;20068;-77
2022/03/23 13:02:20;;;;;;;16.98;7.95;;;24.10;28.00;;;;;;5143076;27;20025;-78
2022/03/23 13:04:46;;;;;;;17.02;8.20;;;24.10;28.00;;;;;;5141764;27;20361;-79
2022/03/23 13:07:29;;;;;;;15.43;7.95;;;24.10;28.00;;;;;;5140683;27;20041;-78
2022/03/23 13:09:56;;;;;;;18.25;8.57;;;24.00;28.10;;;;;;5139847;27;20423;-76
2022/03/23 13:12:27;;;;;;;17.90;8.43;;;24.00;28.00;;;;;;5138981;27;20027;-77